createdAt,value
2022-12-25T00:01:24.196Z,7.24
2022-12-25T00:03:51.968Z,7.27
2022-12-25T00:06:20.359Z,7.26
2022-12-25T00:08:47.758Z,7.25
2022-12-25T00:11:18.072Z,7.32
2022-12-25T00:13:45.828Z,7.36
2022-12-25T00:16:23.467Z,7.42
2022-12-25T00:18:51.700Z,7.18
2022-12-25T00:21:19.907Z,6.83
2022-12-25T00:23:47.732Z,6.95
2022-12-25T00:26:17.397Z,7.04
2022-12-25T00:28:44.830Z,7.04
2022-12-25T00:31:17.460Z,7.27
2022-12-25T00:33:46.607Z,7.22
2022-12-25T00:36:15.339Z,7.07
2022-12-25T00:38:43.365Z,7.06
2022-12-25T00:41:12.909Z,6.74
2022-12-25T00:43:41.966Z,6.96
2022-12-25T00:46:11.230Z,6.84
2022-12-25T00:48:39.271Z,6.74
2022-12-25T00:51:08.426Z,6.72
2022-12-25T00:53:35.870Z,6.85
2022-12-25T00:56:05.793Z,7.00
2022-12-25T00:58:34.336Z,7.05
2022-12-25T01:01:02.978Z,6.98
2022-12-25T01:03:30.671Z,7.10
2022-12-25T01:06:06.401Z,7.14
2022-12-25T01:08:36.343Z,7.15
2022-12-25T01:11:06.448Z,7.28
2022-12-25T01:13:36.007Z,7.13
2022-12-25T01:16:10.606Z,7.03
2022-12-25T01:18:38.470Z,6.79
2022-12-25T01:21:16.166Z,6.68
2022-12-25T01:23:44.197Z,6.65
2022-12-25T01:26:13.214Z,6.79
2022-12-25T01:28:41.060Z,6.68
2022-12-25T01:31:13.918Z,6.68
2022-12-25T01:33:42.932Z,6.85
2022-12-25T01:36:22.228Z,6.91
2022-12-25T01:38:50.329Z,6.86
2022-12-25T01:41:20.173Z,6.96
2022-12-25T01:44:00.424Z,6.91
2022-12-25T01:46:27.842Z,7.11
2022-12-25T01:48:56.081Z,7.16
2022-12-25T01:51:50.877Z,7.10
2022-12-25T01:54:24.740Z,7.19
2022-12-25T01:56:54.076Z,7.22
2022-12-25T01:59:24.780Z,7.16
2022-12-25T02:01:52.446Z,7.10
2022-12-25T02:04:40.082Z,7.07
2022-12-25T02:07:09.200Z,7.09
2022-12-25T02:09:37.765Z,7.19
2022-12-25T02:12:05.945Z,7.04
2022-12-25T02:14:35.495Z,7.18
2022-12-25T02:17:17.793Z,7.14
2022-12-25T02:19:50.988Z,7.20
2022-12-25T02:22:55.571Z,7.28
2022-12-25T02:25:47.701Z,7.34
2022-12-25T02:28:45.935Z,7.41
2022-12-25T02:31:15.229Z,7.34
2022-12-25T02:34:04.957Z,6.90
2022-12-25T02:36:45.445Z,7.07
2022-12-25T02:39:44.937Z,7.17
2022-12-25T02:42:16.783Z,7.09
2022-12-25T02:45:03.784Z,7.13
2022-12-25T02:47:50.883Z,7.13
2022-12-25T02:50:37.096Z,7.20
2022-12-25T02:53:24.973Z,7.17
2022-12-25T02:56:12.111Z,7.05
2022-12-25T02:58:58.987Z,7.11
2022-12-25T03:01:52.005Z,7.18
2022-12-25T03:04:40.215Z,7.21
2022-12-25T03:07:14.695Z,7.08
2022-12-25T03:10:04.511Z,7.12
2022-12-25T03:12:57.473Z,7.18
2022-12-25T03:15:48.071Z,7.36
2022-12-25T03:18:18.348Z,7.20
2022-12-25T03:21:04.037Z,7.22
2022-12-25T03:23:52.462Z,7.35
2022-12-25T03:26:38.189Z,7.39
2022-12-25T03:29:05.588Z,7.46
2022-12-25T03:31:51.404Z,7.48
2022-12-25T03:34:46.512Z,7.50
2022-12-25T03:37:41.558Z,7.44
2022-12-25T03:41:13.135Z,7.46
2022-12-25T03:44:11.374Z,7.39
2022-12-25T03:47:04.957Z,7.34
2022-12-25T03:50:01.086Z,7.37
2022-12-25T03:52:47.992Z,7.40
2022-12-25T03:55:34.587Z,7.37
2022-12-25T03:58:20.381Z,7.34
2022-12-25T04:01:06.248Z,7.34
2022-12-25T04:03:52.230Z,7.32
2022-12-25T04:06:37.991Z,7.36
2022-12-25T04:09:24.170Z,7.40
2022-12-25T04:12:10.032Z,7.38
2022-12-25T04:14:55.914Z,7.42
2022-12-25T04:17:41.725Z,7.48
2022-12-25T04:20:28.099Z,7.55
2022-12-25T04:23:14.022Z,7.61
2022-12-25T04:25:59.860Z,7.62
2022-12-25T04:28:45.770Z,7.68
2022-12-25T04:31:31.772Z,7.72
2022-12-25T04:34:17.590Z,7.74
2022-12-25T04:36:45.028Z,7.88
2022-12-25T04:39:12.441Z,7.82
2022-12-25T04:41:39.845Z,7.86
2022-12-25T04:44:07.242Z,7.85
2022-12-25T04:46:34.630Z,7.84
2022-12-25T04:49:01.954Z,7.89
2022-12-25T04:51:29.304Z,7.87
2022-12-25T04:53:56.808Z,7.84
2022-12-25T04:56:24.242Z,7.81
2022-12-25T04:58:51.605Z,7.80
2022-12-25T05:01:18.987Z,7.75
2022-12-25T05:03:46.399Z,7.76
2022-12-25T05:06:13.753Z,7.76
2022-12-25T05:08:41.307Z,7.73
2022-12-25T05:11:10.421Z,7.71
2022-12-25T05:13:38.333Z,7.70
2022-12-25T05:16:07.301Z,7.71
2022-12-25T05:18:34.772Z,7.75
2022-12-25T05:21:02.175Z,7.78
2022-12-25T05:23:29.569Z,7.88
2022-12-25T05:25:57.004Z,7.90
2022-12-25T05:28:24.382Z,7.89
2022-12-25T05:30:51.862Z,7.97
2022-12-25T05:33:19.230Z,7.91
2022-12-25T05:35:46.550Z,7.95
2022-12-25T05:38:13.859Z,8.00
2022-12-25T05:40:41.391Z,7.98
2022-12-25T05:43:09.357Z,8.02
2022-12-25T05:45:36.971Z,8.03
2022-12-25T05:48:04.367Z,8.00
2022-12-25T05:50:31.692Z,7.99
2022-12-25T05:53:09.091Z,8.07
2022-12-25T05:55:43.501Z,8.02
2022-12-25T05:58:12.643Z,8.01
2022-12-25T06:00:40.783Z,7.92
2022-12-25T06:03:08.201Z,7.86
2022-12-25T06:05:39.254Z,7.82
2022-12-25T06:08:07.024Z,7.93
2022-12-25T06:10:34.321Z,7.98
2022-12-25T06:13:01.854Z,7.90
2022-12-25T06:15:29.382Z,7.93
2022-12-25T06:17:56.689Z,8.10
2022-12-25T06:20:24.084Z,8.08
2022-12-25T06:22:51.455Z,7.97
2022-12-25T06:25:19.177Z,7.98
2022-12-25T06:27:46.511Z,7.96
2022-12-25T06:30:14.206Z,8.16
2022-12-25T06:32:41.584Z,8.29
2022-12-25T06:35:09.380Z,8.31
2022-12-25T06:37:36.665Z,8.16
2022-12-25T06:40:04.253Z,8.17
2022-12-25T06:42:31.665Z,8.14
2022-12-25T06:44:59.043Z,8.10
2022-12-25T06:47:26.399Z,8.13
2022-12-25T06:49:53.769Z,7.99
2022-12-25T06:52:21.089Z,7.90
2022-12-25T06:54:48.464Z,8.15
2022-12-25T06:57:15.775Z,8.13
2022-12-25T06:59:43.046Z,8.15
2022-12-25T07:02:19.458Z,7.98
2022-12-25T07:04:47.181Z,7.91
2022-12-25T07:07:15.022Z,7.84
2022-12-25T07:09:42.721Z,7.91
2022-12-25T07:12:23.587Z,7.65
2022-12-25T07:14:53.405Z,7.73
2022-12-25T07:17:21.494Z,7.73
2022-12-25T07:19:49.257Z,7.83
2022-12-25T07:22:17.009Z,7.83
2022-12-25T07:24:44.433Z,7.87
2022-12-25T07:27:11.908Z,7.88
2022-12-25T07:29:39.252Z,7.83
2022-12-25T07:32:07.085Z,7.74
2022-12-25T07:34:34.497Z,7.88
2022-12-25T07:37:01.939Z,7.94
2022-12-25T07:39:29.441Z,7.99
2022-12-25T07:41:56.797Z,7.97
2022-12-25T07:44:27.961Z,7.85
2022-12-25T07:46:55.244Z,7.67
2022-12-25T07:49:22.658Z,7.64
2022-12-25T07:51:50.147Z,7.36
2022-12-25T07:54:17.627Z,7.46
2022-12-25T07:56:45.021Z,7.41
2022-12-25T07:59:12.395Z,7.29
2022-12-25T08:01:39.909Z,7.38
2022-12-25T08:04:08.303Z,7.54
2022-12-25T08:06:36.221Z,7.39
2022-12-25T08:09:09.844Z,7.67
2022-12-25T08:11:37.683Z,7.72
2022-12-25T08:14:09.043Z,7.70
2022-12-25T08:16:39.735Z,7.75
2022-12-25T08:19:08.077Z,7.69
2022-12-25T08:21:35.455Z,7.86
2022-12-25T08:24:03.232Z,7.91
2022-12-25T08:26:30.726Z,7.92
2022-12-25T08:28:58.047Z,8.00
2022-12-25T08:31:27.963Z,7.97
2022-12-25T08:33:57.131Z,7.98
2022-12-25T08:36:24.966Z,8.11
2022-12-25T08:38:56.973Z,8.20
2022-12-25T08:41:26.639Z,8.15
2022-12-25T08:43:54.323Z,8.20
2022-12-25T08:46:21.773Z,8.27
2022-12-25T08:48:50.166Z,8.40
2022-12-25T08:51:21.641Z,8.54
2022-12-25T08:53:50.756Z,8.64
2022-12-25T08:56:18.953Z,8.83
2022-12-25T08:58:46.631Z,8.97
2022-12-25T09:01:14.287Z,8.96
2022-12-25T09:03:42.977Z,8.96
2022-12-25T09:06:13.113Z,9.01
2022-12-25T09:08:47.735Z,9.10
2022-12-25T09:11:16.215Z,9.34
2022-12-25T09:13:43.647Z,9.59
2022-12-25T09:16:13.464Z,9.85
2022-12-25T09:18:41.226Z,10.27
2022-12-25T09:21:11.127Z,10.73
2022-12-25T09:23:38.492Z,10.50
2022-12-25T09:26:07.795Z,10.51
2022-12-25T09:28:35.397Z,10.81
2022-12-25T09:31:03.690Z,11.64
2022-12-25T09:33:31.219Z,12.20
2022-12-25T09:36:00.916Z,13.12
2022-12-25T09:38:28.915Z,13.75
2022-12-25T09:41:03.641Z,14.72
2022-12-25T09:43:33.789Z,15.28
2022-12-25T09:46:03.099Z,15.48
2022-12-25T09:48:32.905Z,16.24
2022-12-25T09:51:07.286Z,15.99
2022-12-25T09:53:43.466Z,15.88
2022-12-25T09:56:18.316Z,16.45
2022-12-25T09:58:45.947Z,16.76
2022-12-25T10:01:13.270Z,17.78
2022-12-25T10:03:59.238Z,17.73
2022-12-25T10:06:54.774Z,17.83
2022-12-25T10:10:01.493Z,17.29
2022-12-25T10:12:42.692Z,17.54
2022-12-25T10:15:22.280Z,17.91
2022-12-25T10:18:20.923Z,18.32
2022-12-25T10:20:53.076Z,18.84
2022-12-25T10:23:27.231Z,18.30
2022-12-25T10:25:55.311Z,18.87
2022-12-25T10:28:42.306Z,18.96
2022-12-25T10:31:37.356Z,18.85
2022-12-25T10:34:06.035Z,18.30
2022-12-25T10:36:33.571Z,17.94
2022-12-25T10:39:00.626Z,17.27
2022-12-25T10:42:08.894Z,16.08
2022-12-25T10:44:36.455Z,16.99
2022-12-25T10:47:05.463Z,16.91
2022-12-25T10:49:41.741Z,17.08
2022-12-25T10:52:25.918Z,17.21
2022-12-25T10:54:53.760Z,16.80
2022-12-25T10:57:24.635Z,16.63
2022-12-25T10:59:58.093Z,17.14
2022-12-25T11:02:29.435Z,17.36
2022-12-25T11:05:06.229Z,17.37
2022-12-25T11:07:53.824Z,17.85
2022-12-25T11:10:43.899Z,17.03
2022-12-25T11:13:29.757Z,16.36
2022-12-25T11:16:12.153Z,17.05
2022-12-25T11:18:48.736Z,16.38
2022-12-25T11:21:31.744Z,16.03
2022-12-25T11:24:04.591Z,15.55
2022-12-25T11:26:45.920Z,15.61
2022-12-25T11:29:22.089Z,15.17
2022-12-25T11:31:51.544Z,15.25
2022-12-25T11:34:45.577Z,15.47
2022-12-25T11:37:35.612Z,15.14
2022-12-25T11:40:03.440Z,14.77
2022-12-25T11:42:37.757Z,14.50
2022-12-25T11:45:11.421Z,14.59
2022-12-25T11:47:47.007Z,14.66
2022-12-25T11:50:29.403Z,14.91
2022-12-25T11:53:02.142Z,15.01
2022-12-25T11:55:44.794Z,14.62
2022-12-25T11:58:29.392Z,14.53
2022-12-25T12:00:59.241Z,14.45
2022-12-25T12:03:40.934Z,14.77
2022-12-25T12:06:31.006Z,15.16
2022-12-25T12:09:23.850Z,15.61
2022-12-25T12:12:09.022Z,16.02
2022-12-25T12:14:53.785Z,15.87
2022-12-25T12:17:21.065Z,16.18
2022-12-25T12:19:48.111Z,16.09
2022-12-25T12:22:25.531Z,16.00
2022-12-25T12:25:07.240Z,16.88
2022-12-25T12:27:41.170Z,16.85
2022-12-25T12:30:31.845Z,16.80
2022-12-25T12:33:02.747Z,16.86
2022-12-25T12:35:38.107Z,15.90
2022-12-25T12:38:19.550Z,15.98
2022-12-25T12:40:54.454Z,15.82
2022-12-25T12:43:41.277Z,16.16
2022-12-25T12:46:21.561Z,16.92
2022-12-25T12:49:07.595Z,17.36
2022-12-25T12:51:37.132Z,16.47
2022-12-25T12:54:25.699Z,15.44
2022-12-25T12:57:06.945Z,15.20
2022-12-25T12:59:44.485Z,14.99
2022-12-25T13:02:50.782Z,15.01
2022-12-25T13:05:55.561Z,15.31
2022-12-25T13:08:54.699Z,16.03
2022-12-25T13:11:24.156Z,16.42
2022-12-25T13:13:53.052Z,16.30
2022-12-25T13:16:29.335Z,15.69
2022-12-25T13:18:57.248Z,15.70
2022-12-25T13:21:29.094Z,15.80
2022-12-25T13:24:17.044Z,16.29
2022-12-25T13:26:44.584Z,17.46
2022-12-25T13:29:34.217Z,17.98
2022-12-25T13:32:04.346Z,16.99
2022-12-25T13:34:36.550Z,17.09
2022-12-25T13:37:16.752Z,16.67
2022-12-25T13:39:55.630Z,16.15
2022-12-25T13:42:27.610Z,16.05
2022-12-25T13:44:59.344Z,16.17
2022-12-25T13:47:30.948Z,16.39
2022-12-25T13:49:59.839Z,16.31
2022-12-25T13:52:37.756Z,16.27
2022-12-25T13:55:11.574Z,16.14
2022-12-25T13:57:45.667Z,16.03
2022-12-25T14:00:28.226Z,16.71
2022-12-25T14:02:55.417Z,16.33
2022-12-25T14:05:24.270Z,16.20
2022-12-25T14:07:53.325Z,16.15
2022-12-25T14:10:23.531Z,15.72
2022-12-25T14:12:51.715Z,15.88
2022-12-25T14:15:22.101Z,15.58
2022-12-25T14:17:51.007Z,15.49
2022-12-25T14:20:31.508Z,15.41
2022-12-25T14:23:00.764Z,15.22
2022-12-25T14:25:40.590Z,15.03
2022-12-25T14:28:17.769Z,14.85
2022-12-25T14:30:45.521Z,14.73
2022-12-25T14:33:23.147Z,14.67
2022-12-25T14:35:51.312Z,14.55
2022-12-25T14:38:33.868Z,14.47
2022-12-25T14:41:37.607Z,14.54
2022-12-25T14:44:27.425Z,14.33
2022-12-25T14:47:19.880Z,14.04
2022-12-25T14:49:48.141Z,13.91
2022-12-25T14:52:43.350Z,13.74
2022-12-25T14:55:22.311Z,13.63
2022-12-25T14:58:06.122Z,13.51
2022-12-25T15:00:38.819Z,13.43
2022-12-25T15:03:21.084Z,13.18
2022-12-25T15:06:04.483Z,12.90
2022-12-25T15:08:33.174Z,12.89
2022-12-25T15:11:02.703Z,12.54
2022-12-25T15:13:31.441Z,12.61
2022-12-25T15:16:15.350Z,12.59
2022-12-25T15:18:44.443Z,12.50
2022-12-25T15:21:31.500Z,12.41
2022-12-25T15:24:00.082Z,12.40
2022-12-25T15:26:30.679Z,12.13
2022-12-25T15:28:58.547Z,12.11
2022-12-25T15:31:31.054Z,11.99
2022-12-25T15:34:01.675Z,11.95
2022-12-25T15:36:29.260Z,11.93
2022-12-25T15:38:57.029Z,11.93
2022-12-25T15:41:50.479Z,11.83
2022-12-25T15:44:17.569Z,11.90
2022-12-25T15:46:45.975Z,11.96
2022-12-25T15:49:13.921Z,11.85
2022-12-25T15:51:41.775Z,11.69
2022-12-25T15:54:09.869Z,11.49
2022-12-25T15:56:43.508Z,11.33
2022-12-25T15:59:14.161Z,11.09
2022-12-25T16:02:00.222Z,11.04
2022-12-25T16:04:31.283Z,10.98
2022-12-25T16:06:59.628Z,11.10
2022-12-25T16:09:27.610Z,10.83
2022-12-25T16:11:54.598Z,11.02
2022-12-25T16:14:21.861Z,10.93
2022-12-25T16:16:48.949Z,10.64
2022-12-25T16:19:15.942Z,10.70
2022-12-25T16:21:46.126Z,10.78
2022-12-25T16:24:14.014Z,10.77
2022-12-25T16:26:41.370Z,10.79
2022-12-25T16:29:09.166Z,10.71
2022-12-25T16:31:37.391Z,10.75
2022-12-25T16:34:06.055Z,10.65
2022-12-25T16:36:34.261Z,10.61
2022-12-25T16:39:02.646Z,10.47
2022-12-25T16:41:29.576Z,10.48
2022-12-25T16:43:56.526Z,10.15
2022-12-25T16:46:23.591Z,10.33
2022-12-25T16:48:50.653Z,10.28
2022-12-25T16:51:20.846Z,10.26
2022-12-25T16:53:48.549Z,10.27
2022-12-25T16:56:20.567Z,10.21
2022-12-25T16:58:48.192Z,10.46
2022-12-25T17:01:19.944Z,10.55
2022-12-25T17:03:47.705Z,10.57
2022-12-25T17:06:22.981Z,10.51
2022-12-25T17:08:52.120Z,10.41
2022-12-25T17:11:27.220Z,10.45
2022-12-25T17:13:55.333Z,10.34
2022-12-25T17:16:29.393Z,10.33
2022-12-25T17:19:01.350Z,10.35
2022-12-25T17:21:30.041Z,10.45
2022-12-25T17:24:02.367Z,10.56
2022-12-25T17:26:32.499Z,10.97
2022-12-25T17:29:00.122Z,10.98
2022-12-25T17:31:27.890Z,11.30
2022-12-25T17:33:55.068Z,11.08
2022-12-25T17:36:22.816Z,10.74
2022-12-25T17:38:50.227Z,10.99
2022-12-25T17:41:18.739Z,10.91
2022-12-25T17:43:46.572Z,11.14
2022-12-25T17:46:20.321Z,11.46
2022-12-25T17:48:49.935Z,11.34
2022-12-25T17:51:21.929Z,11.59
2022-12-25T17:53:52.280Z,11.42
2022-12-25T17:56:20.660Z,11.29
2022-12-25T17:58:53.652Z,11.51
2022-12-25T18:01:22.258Z,11.49
2022-12-25T18:03:50.371Z,11.46
2022-12-25T18:06:21.701Z,11.71
2022-12-25T18:08:49.728Z,11.52
2022-12-25T18:11:21.429Z,11.46
2022-12-25T18:13:52.057Z,11.63
2022-12-25T18:16:22.275Z,11.77
2022-12-25T18:18:52.615Z,11.68
2022-12-25T18:21:21.840Z,11.60
2022-12-25T18:23:49.393Z,11.69
2022-12-25T18:26:16.562Z,11.62
2022-12-25T18:28:44.019Z,11.46
2022-12-25T18:31:15.412Z,11.28
2022-12-25T18:33:43.241Z,11.19
2022-12-25T18:36:15.571Z,11.05
2022-12-25T18:38:43.132Z,10.95
2022-12-25T18:41:10.633Z,10.83
2022-12-25T18:43:53.461Z,10.70
2022-12-25T18:46:25.291Z,10.60
2022-12-25T18:48:54.812Z,10.48
2022-12-25T18:51:21.886Z,10.13
2022-12-25T18:53:49.001Z,10.03
2022-12-25T18:56:18.136Z,9.97
2022-12-25T18:58:46.762Z,9.87
2022-12-25T19:01:22.971Z,9.80
2022-12-25T19:03:51.467Z,9.75
2022-12-25T19:06:25.046Z,9.60
2022-12-25T19:08:53.512Z,9.59
2022-12-25T19:11:21.295Z,9.60
2022-12-25T19:13:48.999Z,9.52
2022-12-25T19:16:16.907Z,9.62
2022-12-25T19:18:45.408Z,9.58
2022-12-25T19:21:13.111Z,9.60
2022-12-25T19:23:40.623Z,9.61
2022-12-25T19:26:09.691Z,9.53
2022-12-25T19:28:39.272Z,9.47
2022-12-25T19:31:09.482Z,9.56
2022-12-25T19:33:40.775Z,9.65
2022-12-25T19:36:12.788Z,9.66
2022-12-25T19:38:39.745Z,9.58
2022-12-25T19:41:18.446Z,9.60
2022-12-25T19:43:48.524Z,9.84
2022-12-25T19:46:22.832Z,9.89
2022-12-25T19:48:50.153Z,9.95
2022-12-25T19:51:27.895Z,10.10
2022-12-25T19:53:58.447Z,10.03
2022-12-25T19:56:27.063Z,10.29
2022-12-25T19:58:54.453Z,10.31
2022-12-25T20:01:23.217Z,10.35
2022-12-25T20:03:50.783Z,10.34
2022-12-25T20:06:25.936Z,10.38
2022-12-25T20:08:56.499Z,10.66
2022-12-25T20:11:25.603Z,10.71
2022-12-25T20:13:53.261Z,10.74
2022-12-25T20:16:20.711Z,10.78
2022-12-25T20:18:48.279Z,10.73
2022-12-25T20:21:17.860Z,10.73
2022-12-25T20:23:49.276Z,10.61
2022-12-25T20:26:18.374Z,10.59
2022-12-25T20:28:45.892Z,10.42
2022-12-25T20:31:36.574Z,10.27
2022-12-25T20:34:08.049Z,10.15
2022-12-25T20:36:37.753Z,10.16
2022-12-25T20:39:09.501Z,10.12
2022-12-25T20:41:38.144Z,10.05
2022-12-25T20:44:06.772Z,9.97
2022-12-25T20:46:34.344Z,10.10
2022-12-25T20:49:02.237Z,9.99
2022-12-25T20:51:29.539Z,10.12
2022-12-25T20:53:57.251Z,10.27
2022-12-25T20:56:25.994Z,10.23
2022-12-25T20:58:58.841Z,10.33
2022-12-25T21:01:27.539Z,10.28
2022-12-25T21:03:55.457Z,10.18
2022-12-25T21:06:23.301Z,10.05
2022-12-25T21:08:50.671Z,10.44
2022-12-25T21:11:18.339Z,10.30
2022-12-25T21:13:46.161Z,10.09
2022-12-25T21:16:22.025Z,10.44
2022-12-25T21:18:52.233Z,10.47
2022-12-25T21:21:20.918Z,10.85
2022-12-25T21:23:48.251Z,11.03
2022-12-25T21:26:31.786Z,10.96
2022-12-25T21:29:00.729Z,11.13
2022-12-25T21:31:29.089Z,11.16
2022-12-25T21:33:57.660Z,11.43
2022-12-25T21:36:31.965Z,11.49
2022-12-25T21:39:03.418Z,11.37
2022-12-25T21:41:32.724Z,11.39
2022-12-25T21:44:01.535Z,11.53
2022-12-25T21:46:29.173Z,11.46
2022-12-25T21:48:57.503Z,11.24
2022-12-25T21:51:46.290Z,11.18
2022-12-25T21:54:14.225Z,10.99
2022-12-25T21:56:46.102Z,11.13
2022-12-25T21:59:18.679Z,10.94
2022-12-25T22:01:46.923Z,11.03
2022-12-25T22:04:15.827Z,10.82
2022-12-25T22:07:02.395Z,10.67
2022-12-25T22:09:29.837Z,10.82
2022-12-25T22:12:16.667Z,10.67
2022-12-25T22:14:54.997Z,10.71
2022-12-25T22:17:44.555Z,10.87
2022-12-25T22:20:21.696Z,11.09
2022-12-25T22:22:49.443Z,11.15
2022-12-25T22:25:17.718Z,11.12
2022-12-25T22:27:47.958Z,11.47
2022-12-25T22:30:17.999Z,11.42
2022-12-25T22:32:46.338Z,11.57
2022-12-25T22:35:14.197Z,11.64
2022-12-25T22:37:42.642Z,11.60
2022-12-25T22:40:13.683Z,11.81
2022-12-25T22:42:41.452Z,11.82
2022-12-25T22:45:09.594Z,11.96
2022-12-25T22:47:36.909Z,11.94
2022-12-25T22:50:04.806Z,11.98
2022-12-25T22:52:32.117Z,11.97
2022-12-25T22:54:59.543Z,11.97
2022-12-25T22:57:26.932Z,11.95
2022-12-25T22:59:54.299Z,12.02
2022-12-25T23:02:22.018Z,11.92
2022-12-25T23:04:49.602Z,11.73
2022-12-25T23:07:17.124Z,11.62
2022-12-25T23:09:45.015Z,11.49
2022-12-25T23:12:32.714Z,11.22
2022-12-25T23:15:00.102Z,11.17
2022-12-25T23:17:46.030Z,11.22
2022-12-25T23:20:33.336Z,11.27
2022-12-25T23:23:19.492Z,11.04
2022-12-25T23:26:05.875Z,11.18
2022-12-25T23:28:51.976Z,11.16
2022-12-25T23:31:20.976Z,11.04
2022-12-25T23:33:48.406Z,10.99
2022-12-25T23:36:15.765Z,11.49
2022-12-25T23:38:43.131Z,11.53
2022-12-25T23:41:10.484Z,11.45
2022-12-25T23:43:37.811Z,11.30
2022-12-25T23:46:05.392Z,11.22
2022-12-25T23:48:32.767Z,10.93
2022-12-25T23:51:09.306Z,10.98
2022-12-25T23:53:36.785Z,10.93
2022-12-25T23:56:04.385Z,10.62
2022-12-25T23:58:33.021Z,10.87
